createdAt,value
2023-04-17T00:00:38.929Z,3.94
2023-04-17T00:03:07.512Z,3.94
2023-04-17T00:05:36.118Z,3.88
2023-04-17T00:08:05.007Z,3.81
2023-04-17T00:10:33.358Z,3.74
2023-04-17T00:13:04.091Z,3.70
2023-04-17T00:15:33.086Z,3.64
2023-04-17T00:18:02.551Z,3.59
2023-04-17T00:20:32.907Z,3.55
2023-04-17T00:23:02.110Z,3.52
2023-04-17T00:25:30.893Z,3.55
2023-04-17T00:27:59.584Z,3.56
2023-04-17T00:30:28.099Z,3.55
2023-04-17T00:32:57.741Z,3.54
2023-04-17T00:35:26.561Z,3.50
2023-04-17T00:37:55.146Z,3.48
2023-04-17T00:40:23.629Z,3.46
2023-04-17T00:42:56.416Z,3.46
2023-04-17T00:45:24.681Z,3.46
2023-04-17T00:47:53.186Z,3.43
2023-04-17T00:50:21.978Z,3.39
2023-04-17T00:52:51.318Z,3.35
2023-04-17T00:55:19.896Z,3.35
2023-04-17T00:57:51.289Z,3.33
2023-04-17T01:00:19.725Z,3.27
2023-04-17T01:02:48.739Z,3.22
2023-04-17T01:05:17.749Z,3.20
2023-04-17T01:07:46.234Z,3.15
2023-04-17T01:10:14.935Z,3.11
2023-04-17T01:12:47.020Z,3.07
2023-04-17T01:15:15.794Z,3.00
2023-04-17T01:17:44.299Z,2.94
2023-04-17T01:20:13.805Z,2.89
2023-04-17T01:22:42.964Z,2.84
2023-04-17T01:25:11.542Z,2.81
2023-04-17T01:27:40.945Z,2.78
2023-04-17T01:30:09.994Z,2.76
2023-04-17T01:32:46.698Z,2.75
2023-04-17T01:35:14.987Z,2.73
2023-04-17T01:37:44.094Z,2.72
2023-04-17T01:40:13.133Z,2.72
2023-04-17T01:42:41.511Z,2.70
2023-04-17T01:45:10.758Z,2.67
2023-04-17T01:47:39.762Z,2.66
2023-04-17T01:50:11.605Z,2.64
2023-04-17T01:52:40.247Z,2.63
2023-04-17T01:55:09.546Z,2.61
2023-04-17T01:57:39.346Z,2.60
2023-04-17T02:00:09.415Z,2.58
2023-04-17T02:02:44.268Z,2.58
2023-04-17T02:05:12.943Z,2.55
2023-04-17T02:07:41.471Z,2.55
2023-04-17T02:10:10.620Z,2.55
2023-04-17T02:12:39.042Z,2.54
2023-04-17T02:15:08.212Z,2.54
2023-04-17T02:17:38.361Z,2.55
2023-04-17T02:20:09.236Z,2.57
2023-04-17T02:22:37.833Z,2.58
2023-04-17T02:25:06.681Z,2.58
2023-04-17T02:27:35.410Z,2.60
2023-04-17T02:30:04.346Z,2.64
2023-04-17T02:32:34.376Z,2.66
2023-04-17T02:35:04.009Z,2.64
2023-04-17T02:37:33.645Z,2.62
2023-04-17T02:40:02.501Z,2.57
2023-04-17T02:42:31.628Z,2.58
2023-04-17T02:45:00.665Z,2.66
2023-04-17T02:47:29.055Z,2.75
2023-04-17T02:50:00.418Z,2.86
2023-04-17T02:52:29.878Z,3.02
2023-04-17T02:54:58.504Z,3.19
2023-04-17T02:57:27.741Z,3.30
2023-04-17T02:59:56.421Z,3.33
2023-04-17T03:02:24.988Z,3.38
2023-04-17T03:04:53.422Z,3.50
2023-04-17T03:07:23.838Z,3.63
2023-04-17T03:09:54.316Z,3.71
2023-04-17T03:12:22.892Z,3.78
2023-04-17T03:14:52.910Z,3.85
2023-04-17T03:17:21.256Z,3.97
2023-04-17T03:19:50.112Z,4.15
2023-04-17T03:22:18.725Z,4.41
2023-04-17T03:24:47.852Z,4.71
2023-04-17T03:27:16.582Z,5.08
2023-04-17T03:29:45.574Z,5.54
2023-04-17T03:32:14.643Z,6.06
2023-04-17T03:34:43.884Z,6.51
2023-04-17T03:37:12.758Z,6.91
2023-04-17T03:39:41.682Z,7.30
2023-04-17T03:42:14.881Z,7.62
2023-04-17T03:44:43.501Z,7.93
2023-04-17T03:47:12.885Z,8.16
2023-04-17T03:49:42.242Z,8.35
2023-04-17T03:52:11.883Z,8.63
2023-04-17T03:54:40.652Z,8.93
2023-04-17T03:57:09.029Z,9.22
2023-04-17T03:59:37.686Z,9.40
2023-04-17T04:02:07.340Z,9.59
2023-04-17T04:04:36.759Z,9.78
2023-04-17T04:07:11.853Z,9.93
2023-04-17T04:09:40.633Z,10.14
2023-04-17T04:12:09.516Z,10.35
2023-04-17T04:14:42.184Z,10.61
2023-04-17T04:17:11.692Z,10.84
2023-04-17T04:19:40.476Z,11.03
2023-04-17T04:22:09.574Z,11.22
2023-04-17T04:24:43.035Z,11.44
2023-04-17T04:27:13.297Z,11.57
2023-04-17T04:29:48.792Z,11.69
2023-04-17T04:32:19.294Z,11.79
2023-04-17T04:34:48.750Z,11.88
2023-04-17T04:37:22.117Z,12.07
2023-04-17T04:39:54.397Z,12.25
2023-04-17T04:42:23.878Z,12.43
2023-04-17T04:45:22.184Z,12.73
2023-04-17T04:47:50.868Z,13.00
2023-04-17T04:50:20.151Z,13.14
2023-04-17T04:52:49.128Z,13.20
2023-04-17T04:55:27.428Z,13.28
2023-04-17T04:57:57.796Z,13.35
2023-04-17T05:00:26.807Z,13.42
2023-04-17T05:02:58.877Z,13.43
2023-04-17T05:05:28.204Z,13.59
2023-04-17T05:07:56.717Z,13.77
2023-04-17T05:10:27.426Z,13.90
2023-04-17T05:13:00.020Z,14.07
2023-04-17T05:15:28.895Z,14.30
2023-04-17T05:17:58.058Z,14.35
2023-04-17T05:20:27.080Z,14.32
2023-04-17T05:22:58.892Z,14.45
2023-04-17T05:25:27.319Z,14.57
2023-04-17T05:27:56.652Z,14.61
2023-04-17T05:30:25.530Z,14.69
2023-04-17T05:33:25.432Z,14.80
2023-04-17T05:35:57.289Z,14.82
2023-04-17T05:38:25.766Z,14.78
2023-04-17T05:40:54.720Z,14.89
2023-04-17T05:43:23.076Z,14.97
2023-04-17T05:45:53.830Z,14.93
2023-04-17T05:48:22.326Z,14.92
2023-04-17T05:50:51.137Z,14.85
2023-04-17T05:53:19.740Z,14.88
2023-04-17T05:55:51.902Z,14.95
2023-04-17T05:58:24.147Z,14.86
2023-04-17T06:00:55.831Z,14.66
2023-04-17T06:03:25.134Z,14.62
2023-04-17T06:05:59.408Z,14.60
2023-04-17T06:08:28.196Z,14.60
2023-04-17T06:10:56.605Z,14.73
2023-04-17T06:13:26.417Z,14.84
2023-04-17T06:15:55.006Z,14.95
2023-04-17T06:18:23.798Z,15.08
2023-04-17T06:20:52.371Z,15.11
2023-04-17T06:23:21.831Z,15.32
2023-04-17T06:25:50.976Z,15.58
2023-04-17T06:28:20.279Z,15.65
2023-04-17T06:30:49.046Z,15.50
2023-04-17T06:33:17.675Z,15.40
2023-04-17T06:35:46.365Z,15.38
2023-04-17T06:38:28.880Z,15.56
2023-04-17T06:40:58.115Z,15.77
2023-04-17T06:43:27.340Z,16.00
2023-04-17T06:45:55.741Z,16.13
2023-04-17T06:48:24.221Z,16.19
2023-04-17T06:50:52.444Z,16.17
2023-04-17T06:53:21.832Z,16.11
2023-04-17T06:55:50.159Z,15.88
2023-04-17T06:58:18.751Z,15.66
2023-04-17T07:00:47.237Z,15.55
2023-04-17T07:03:16.871Z,15.60
2023-04-17T07:05:45.511Z,15.59
2023-04-17T07:08:16.116Z,15.61
2023-04-17T07:10:44.936Z,15.65
2023-04-17T07:13:13.417Z,15.62
2023-04-17T07:15:41.980Z,15.61
2023-04-17T07:18:11.383Z,15.49
2023-04-17T07:20:39.723Z,15.41
2023-04-17T07:23:08.571Z,15.46
2023-04-17T07:25:37.248Z,15.57
2023-04-17T07:28:05.951Z,15.68
2023-04-17T07:30:34.654Z,15.69
2023-04-17T07:33:03.532Z,15.55
2023-04-17T07:35:32.295Z,15.52
2023-04-17T07:38:03.765Z,15.53
2023-04-17T07:40:32.366Z,15.52
2023-04-17T07:43:00.816Z,15.52
2023-04-17T07:45:29.503Z,15.56
2023-04-17T07:47:58.150Z,15.65
2023-04-17T07:50:26.838Z,15.89
2023-04-17T07:52:55.873Z,16.12
2023-04-17T07:55:24.252Z,16.24
2023-04-17T07:57:53.248Z,16.40
2023-04-17T08:00:21.936Z,16.63
2023-04-17T08:02:50.761Z,16.88
2023-04-17T08:05:19.736Z,16.94
2023-04-17T08:07:48.390Z,16.84
2023-04-17T08:10:16.742Z,16.66
2023-04-17T08:12:46.136Z,16.58
2023-04-17T08:15:14.802Z,16.62
2023-04-17T08:17:43.617Z,16.77
2023-04-17T08:20:12.274Z,16.89
2023-04-17T08:22:41.571Z,16.87
2023-04-17T08:25:10.958Z,16.92
2023-04-17T08:27:40.847Z,16.96
2023-04-17T08:30:13.046Z,16.99
2023-04-17T08:32:47.001Z,16.98
2023-04-17T08:35:15.648Z,16.95
2023-04-17T08:37:47.067Z,16.87
2023-04-17T08:40:17.358Z,16.79
2023-04-17T08:42:48.198Z,16.66
2023-04-17T08:45:17.653Z,16.57
2023-04-17T08:47:46.386Z,16.58
2023-04-17T08:50:17.067Z,16.60
2023-04-17T08:52:49.723Z,16.59
2023-04-17T08:55:22.630Z,16.62
2023-04-17T08:58:04.411Z,16.82
2023-04-17T09:00:34.127Z,16.89
2023-04-17T09:03:05.300Z,16.85
2023-04-17T09:05:34.629Z,16.82
2023-04-17T09:08:24.302Z,16.86
2023-04-17T09:10:53.936Z,17.00
2023-04-17T09:13:25.137Z,17.04
2023-04-17T09:16:07.446Z,16.87
2023-04-17T09:18:37.315Z,16.61
2023-04-17T09:21:06.621Z,16.51
2023-04-17T09:23:59.800Z,16.51
2023-04-17T09:26:31.140Z,16.67
2023-04-17T09:29:12.262Z,16.94
2023-04-17T09:31:41.689Z,17.15
2023-04-17T09:34:15.547Z,17.07
2023-04-17T09:36:44.243Z,16.83
2023-04-17T09:39:20.933Z,16.75
2023-04-17T09:41:49.668Z,16.84
2023-04-17T09:44:28.999Z,16.91
2023-04-17T09:46:57.506Z,17.02
2023-04-17T09:49:29.131Z,17.18
2023-04-17T09:51:57.981Z,17.27
2023-04-17T09:54:26.908Z,17.16
2023-04-17T09:56:56.347Z,17.07
2023-04-17T09:59:25.266Z,17.02
2023-04-17T10:01:56.589Z,16.93
2023-04-17T10:04:25.321Z,17.01
2023-04-17T10:06:54.124Z,17.11
2023-04-17T10:09:22.937Z,17.22
2023-04-17T10:11:51.398Z,17.43
2023-04-17T10:14:33.131Z,17.69
2023-04-17T10:17:01.893Z,17.88
2023-04-17T10:19:31.810Z,18.06
2023-04-17T10:22:15.868Z,18.20
2023-04-17T10:25:13.152Z,18.28
2023-04-17T10:27:41.996Z,18.37
2023-04-17T10:30:12.999Z,18.45
2023-04-17T10:32:46.709Z,18.52
2023-04-17T10:35:17.992Z,18.53
2023-04-17T10:37:52.518Z,18.47
2023-04-17T10:40:25.991Z,18.36
2023-04-17T10:43:22.649Z,18.29
2023-04-17T10:46:13.276Z,18.40
2023-04-17T10:48:49.907Z,18.38
2023-04-17T10:51:24.330Z,18.31
2023-04-17T10:53:56.104Z,18.37
2023-04-17T10:56:26.576Z,18.42
2023-04-17T10:59:11.400Z,18.51
2023-04-17T11:01:58.074Z,18.51
2023-04-17T11:04:31.029Z,18.54
2023-04-17T11:07:00.463Z,18.48
2023-04-17T11:09:29.767Z,18.50
2023-04-17T11:11:59.803Z,18.56
2023-04-17T11:14:28.167Z,18.50
2023-04-17T11:16:56.823Z,18.53
2023-04-17T11:19:25.965Z,18.68
2023-04-17T11:21:57.440Z,18.60
2023-04-17T11:24:34.684Z,18.36
2023-04-17T11:27:04.020Z,18.24
2023-04-17T11:29:33.317Z,18.39
2023-04-17T11:32:01.773Z,18.48
2023-04-17T11:34:30.523Z,18.58
2023-04-17T11:37:00.051Z,18.59
2023-04-17T11:39:30.340Z,18.58
2023-04-17T11:41:58.875Z,18.52
2023-04-17T11:44:28.305Z,18.48
2023-04-17T11:46:59.284Z,18.61
2023-04-17T11:49:29.021Z,18.75
2023-04-17T11:52:00.295Z,18.75
2023-04-17T11:54:29.758Z,18.79
2023-04-17T11:57:11.905Z,18.86
2023-04-17T11:59:42.273Z,18.84
2023-04-17T12:02:11.560Z,18.68
2023-04-17T12:04:40.759Z,18.50
2023-04-17T12:07:09.492Z,18.46
2023-04-17T12:09:37.866Z,18.44
2023-04-17T12:12:06.978Z,18.45
2023-04-17T12:14:36.269Z,18.40
2023-04-17T12:17:04.740Z,18.22
2023-04-17T12:19:34.066Z,18.16
2023-04-17T12:22:02.697Z,18.22
2023-04-17T12:24:31.185Z,18.26
2023-04-17T12:27:02.078Z,18.33
2023-04-17T12:29:43.072Z,18.45
2023-04-17T12:32:13.979Z,18.49
2023-04-17T12:34:42.631Z,18.48
2023-04-17T12:37:11.907Z,18.46
2023-04-17T12:39:40.333Z,18.44
2023-04-17T12:42:08.831Z,18.46
2023-04-17T12:44:37.402Z,18.47
2023-04-17T12:47:05.999Z,18.46
2023-04-17T12:49:35.507Z,18.38
2023-04-17T12:52:04.133Z,18.28
2023-04-17T12:54:33.484Z,18.25
2023-04-17T12:57:02.631Z,18.16
2023-04-17T12:59:31.454Z,18.06
2023-04-17T13:01:59.855Z,18.09
2023-04-17T13:04:28.565Z,18.13
2023-04-17T13:06:57.479Z,18.16
2023-04-17T13:09:26.556Z,18.12
2023-04-17T13:11:54.979Z,18.07
2023-04-17T13:14:23.517Z,17.95
2023-04-17T13:16:52.389Z,17.89
2023-04-17T13:19:20.830Z,17.96
2023-04-17T13:21:51.314Z,18.06
2023-04-17T13:24:19.770Z,18.11
2023-04-17T13:26:48.425Z,18.15
2023-04-17T13:29:19.289Z,18.09
2023-04-17T13:31:48.376Z,17.99
2023-04-17T13:34:16.807Z,17.95
2023-04-17T13:36:46.555Z,17.95
2023-04-17T13:39:15.344Z,17.92
2023-04-17T13:41:43.925Z,17.87
2023-04-17T13:44:14.091Z,17.79
2023-04-17T13:46:44.405Z,17.67
2023-04-17T13:49:13.299Z,17.50
2023-04-17T13:51:41.971Z,17.43
2023-04-17T13:54:10.706Z,17.39
2023-04-17T13:56:39.414Z,17.32
2023-04-17T13:59:08.100Z,17.31
2023-04-17T14:01:36.705Z,17.30
2023-04-17T14:04:05.592Z,17.29
2023-04-17T14:06:35.122Z,17.25
2023-04-17T14:09:03.804Z,17.21
2023-04-17T14:11:32.258Z,17.15
2023-04-17T14:14:01.138Z,17.07
2023-04-17T14:16:29.716Z,16.96
2023-04-17T14:19:06.433Z,16.92
2023-04-17T14:21:42.475Z,16.91
2023-04-17T14:24:11.151Z,16.85
2023-04-17T14:26:39.620Z,16.84
2023-04-17T14:29:09.343Z,16.84
2023-04-17T14:31:37.926Z,16.83
2023-04-17T14:34:06.640Z,16.81
2023-04-17T14:36:35.999Z,16.82
2023-04-17T14:39:04.415Z,16.81
2023-04-17T14:41:34.438Z,16.76
2023-04-17T14:44:02.979Z,16.71
2023-04-17T14:46:32.173Z,16.66
2023-04-17T14:49:00.659Z,16.60
2023-04-17T14:51:30.610Z,16.54
2023-04-17T14:53:59.284Z,16.48
2023-04-17T14:56:30.005Z,16.45
2023-04-17T14:58:58.490Z,16.41
2023-04-17T15:01:26.965Z,16.36
2023-04-17T15:03:55.844Z,16.29
2023-04-17T15:06:24.637Z,16.26
2023-04-17T15:08:53.143Z,16.15
2023-04-17T15:11:21.557Z,16.02
2023-04-17T15:13:50.384Z,15.91
2023-04-17T15:16:18.786Z,15.82
2023-04-17T15:18:47.249Z,15.71
2023-04-17T15:21:16.619Z,15.58
2023-04-17T15:23:44.927Z,15.47
2023-04-17T15:26:13.457Z,15.37
2023-04-17T15:28:42.091Z,15.28
2023-04-17T15:31:10.519Z,15.22
2023-04-17T15:33:38.877Z,15.16
2023-04-17T15:36:07.400Z,15.09
2023-04-17T15:38:36.384Z,15.01
2023-04-17T15:41:04.736Z,14.97
2023-04-17T15:43:33.595Z,14.91
2023-04-17T15:46:03.808Z,14.85
2023-04-17T15:48:32.579Z,14.75
2023-04-17T15:51:03.044Z,14.68
2023-04-17T15:53:32.058Z,14.62
2023-04-17T15:56:00.782Z,14.57
2023-04-17T15:58:29.337Z,14.55
2023-04-17T16:00:57.800Z,14.54
2023-04-17T16:03:26.326Z,14.51
2023-04-17T16:05:55.154Z,14.46
2023-04-17T16:08:23.831Z,14.37
2023-04-17T16:10:52.313Z,14.29
2023-04-17T16:13:20.699Z,14.24
2023-04-17T16:15:50.160Z,14.17
2023-04-17T16:18:18.676Z,14.12
2023-04-17T16:20:47.302Z,14.04
2023-04-17T16:23:15.772Z,13.96
2023-04-17T16:25:44.323Z,13.87
2023-04-17T16:28:12.710Z,13.80
2023-04-17T16:30:41.082Z,13.74
2023-04-17T16:33:09.764Z,13.68
2023-04-17T16:35:38.247Z,13.61
2023-04-17T16:38:06.946Z,13.53
2023-04-17T16:40:35.618Z,13.44
2023-04-17T16:43:04.098Z,13.38
2023-04-17T16:45:32.828Z,13.33
2023-04-17T16:48:01.524Z,13.29
2023-04-17T16:50:30.464Z,13.24
2023-04-17T16:52:58.959Z,13.18
2023-04-17T16:55:27.442Z,13.11
2023-04-17T16:57:55.885Z,13.04
2023-04-17T17:00:24.593Z,12.94
2023-04-17T17:02:53.165Z,12.86
2023-04-17T17:05:22.155Z,12.81
2023-04-17T17:07:50.424Z,12.78
2023-04-17T17:10:19.439Z,12.78
2023-04-17T17:12:47.865Z,12.79
2023-04-17T17:15:16.371Z,12.76
2023-04-17T17:17:44.937Z,12.71
2023-04-17T17:20:13.782Z,12.65
2023-04-17T17:22:42.056Z,12.59
2023-04-17T17:25:10.641Z,12.54
2023-04-17T17:27:39.384Z,12.48
2023-04-17T17:30:08.457Z,12.37
2023-04-17T17:32:37.773Z,12.31
2023-04-17T17:35:06.945Z,12.27
2023-04-17T17:37:35.476Z,12.25
2023-04-17T17:40:04.599Z,12.26
2023-04-17T17:42:33.583Z,12.26
2023-04-17T17:45:02.071Z,12.24
2023-04-17T17:47:30.734Z,12.23
2023-04-17T17:49:59.341Z,12.19
2023-04-17T17:52:27.838Z,12.23
2023-04-17T17:54:56.714Z,12.25
2023-04-17T17:57:27.706Z,12.23
2023-04-17T18:00:01.714Z,12.18
2023-04-17T18:02:33.882Z,12.15
2023-04-17T18:05:02.565Z,12.07
2023-04-17T18:07:31.556Z,12.00
2023-04-17T18:09:59.913Z,11.95
2023-04-17T18:12:28.481Z,11.90
2023-04-17T18:14:57.045Z,11.81
2023-04-17T18:17:25.983Z,11.75
2023-04-17T18:19:54.427Z,11.72
2023-04-17T18:22:22.833Z,11.64
2023-04-17T18:24:54.693Z,11.55
2023-04-17T18:27:23.088Z,11.45
2023-04-17T18:29:51.698Z,11.37
2023-04-17T18:32:22.181Z,11.31
2023-04-17T18:34:51.406Z,11.24
2023-04-17T18:37:20.061Z,11.15
2023-04-17T18:39:48.528Z,11.07
2023-04-17T18:42:17.007Z,11.01
2023-04-17T18:44:45.483Z,10.92
2023-04-17T18:47:13.967Z,10.83
2023-04-17T18:49:42.383Z,10.75
2023-04-17T18:52:11.157Z,10.70
2023-04-17T18:54:39.537Z,10.67
2023-04-17T18:57:08.218Z,10.64
2023-04-17T18:59:36.710Z,10.61
2023-04-17T19:02:05.571Z,10.57
2023-04-17T19:04:34.096Z,10.58
2023-04-17T19:07:03.087Z,10.63
2023-04-17T19:09:31.527Z,10.44
2023-04-17T19:12:00.017Z,10.41
2023-04-17T19:14:28.620Z,10.39
2023-04-17T19:16:57.324Z,10.49
2023-04-17T19:19:26.241Z,10.46
2023-04-17T19:21:54.816Z,10.42
2023-04-17T19:24:23.446Z,10.37
2023-04-17T19:26:51.859Z,10.25
2023-04-17T19:29:20.743Z,10.10
2023-04-17T19:31:49.224Z,10.13
2023-04-17T19:34:17.869Z,10.05
2023-04-17T19:36:46.965Z,10.07
2023-04-17T19:39:15.820Z,10.09
2023-04-17T19:41:50.930Z,10.06
2023-04-17T19:44:19.370Z,10.04
2023-04-17T19:46:47.982Z,9.99
2023-04-17T19:49:16.451Z,9.92
2023-04-17T19:51:44.910Z,9.88
2023-04-17T19:54:13.468Z,9.85
2023-04-17T19:56:41.971Z,9.82
2023-04-17T19:59:14.361Z,9.78
2023-04-17T20:01:44.705Z,9.76
2023-04-17T20:04:13.531Z,9.72
2023-04-17T20:06:42.462Z,9.70
2023-04-17T20:09:13.259Z,9.68
2023-04-17T20:11:43.107Z,9.66
2023-04-17T20:14:14.932Z,9.64
2023-04-17T20:16:45.458Z,9.61
2023-04-17T20:19:14.470Z,9.58
2023-04-17T20:21:44.321Z,9.55
2023-04-17T20:24:13.310Z,9.52
2023-04-17T20:26:44.340Z,9.48
2023-04-17T20:29:12.905Z,9.44
2023-04-17T20:31:42.109Z,9.42
2023-04-17T20:34:10.547Z,9.39
2023-04-17T20:36:38.896Z,9.32
2023-04-17T20:39:10.925Z,9.25
2023-04-17T20:41:40.712Z,9.14
2023-04-17T20:44:09.404Z,9.10
2023-04-17T20:46:38.470Z,9.08
2023-04-17T20:49:07.049Z,9.05
2023-04-17T20:51:36.127Z,9.04
2023-04-17T20:54:04.636Z,9.03
2023-04-17T20:56:32.967Z,9.04
2023-04-17T20:59:01.455Z,9.00
2023-04-17T21:01:52.934Z,8.96
2023-04-17T21:04:22.110Z,8.91
2023-04-17T21:06:50.892Z,8.85
2023-04-17T21:09:19.575Z,8.84
2023-04-17T21:11:49.738Z,8.85
2023-04-17T21:14:18.068Z,8.86
2023-04-17T21:16:46.854Z,8.87
2023-04-17T21:19:15.542Z,8.85
2023-04-17T21:21:43.822Z,8.85
2023-04-17T21:24:12.582Z,8.87
2023-04-17T21:26:41.554Z,8.85
2023-04-17T21:29:11.124Z,8.84
2023-04-17T21:31:39.878Z,8.85
2023-04-17T21:34:08.512Z,8.85
2023-04-17T21:36:37.157Z,8.84
2023-04-17T21:39:07.159Z,8.84
2023-04-17T21:41:35.863Z,8.83
2023-04-17T21:44:05.777Z,8.79
2023-04-17T21:46:34.360Z,8.81
2023-04-17T21:49:03.332Z,8.80
2023-04-17T21:51:32.052Z,8.76
2023-04-17T21:54:00.623Z,8.75
2023-04-17T21:56:29.574Z,8.72
2023-04-17T21:58:58.055Z,8.69
2023-04-17T22:01:26.734Z,8.67
2023-04-17T22:03:55.389Z,8.63
2023-04-17T22:06:24.255Z,8.61
2023-04-17T22:08:52.845Z,8.60
2023-04-17T22:11:21.331Z,8.58
2023-04-17T22:13:50.317Z,8.56
2023-04-17T22:16:19.130Z,8.51
2023-04-17T22:18:47.691Z,8.49
2023-04-17T22:21:16.128Z,8.46
2023-04-17T22:23:45.169Z,8.44
2023-04-17T22:26:13.789Z,8.44
2023-04-17T22:28:42.171Z,8.45
2023-04-17T22:31:11.165Z,8.46
2023-04-17T22:33:39.610Z,8.49
2023-04-17T22:36:08.733Z,8.49
2023-04-17T22:38:37.388Z,8.49
2023-04-17T22:41:05.883Z,8.47
2023-04-17T22:43:34.343Z,8.45
2023-04-17T22:46:02.864Z,8.42
2023-04-17T22:48:32.841Z,8.42
2023-04-17T22:51:01.595Z,8.45
2023-04-17T22:53:31.670Z,8.43
2023-04-17T22:56:01.198Z,8.42
2023-04-17T22:58:33.726Z,8.39
2023-04-17T23:01:03.384Z,8.37
2023-04-17T23:03:32.684Z,8.36
2023-04-17T23:06:01.238Z,8.37
2023-04-17T23:08:30.550Z,8.36
2023-04-17T23:11:00.079Z,8.31
2023-04-17T23:13:28.710Z,8.27
2023-04-17T23:15:57.750Z,8.29
2023-04-17T23:18:26.298Z,8.29
2023-04-17T23:20:54.775Z,8.31
2023-04-17T23:23:23.523Z,8.30
2023-04-17T23:25:52.653Z,8.30
2023-04-17T23:28:21.344Z,8.31
2023-04-17T23:30:49.825Z,8.33
2023-04-17T23:33:18.330Z,8.33
2023-04-17T23:35:46.917Z,8.33
2023-04-17T23:38:15.492Z,8.29
2023-04-17T23:40:44.068Z,8.27
2023-04-17T23:43:12.752Z,8.25
2023-04-17T23:45:41.323Z,8.24
2023-04-17T23:48:09.810Z,8.19
2023-04-17T23:50:38.355Z,8.16
2023-04-17T23:53:07.501Z,8.11
2023-04-17T23:55:35.867Z,8.07
2023-04-17T23:58:04.347Z,8.03
